Terminal Aerodrome Forecast
Issued by NWS

Home | Current Version | Previous Version | Text Only | Print | Product List | Glossary On
Versions: 1 2 3 4 5 6 7 8 9 10 11 12 13 14 15 16 17 18 19 20 21 22
401
FTUS43 KAPX 102333
TAFPLN
TAF
KPLN 102333Z 1100/1124 34010G18KT P6SM BKN029
     FM110200 34009KT P6SM BKN035
     FM110600 34005KT P6SM BKN035
     FM112000 28010G16KT 5SM -SHSN OVC035=

USA.gov is the U.S. government's official web portal to all federal, state and local government web resources and services.